Monday, June 25, 2018, 7:33 PM GMT
Back to Local

CYRJ, Roberval, Que.

Location: , , Canada Lat: 48.517
Local Time: 7:33 PM GMT (19:33 GMT) Lon: -72.267
Time Zone: GMT Elev: 587 ft

Show me the last for .
Show Coded

Time T Td Feel RH Dir Speed Gust Alt SLP Vis Weather Sky Remarks
2018-06-25 19:00 66 34 - 29 360° 9 20 30.09 30.10 40 FEW073 None
2018-06-25 18:00 64 36 - 34 350° 12 22 30.08 30.09 40 FEW065 None
2018-06-25 17:00 66 37 - 34 330° 13 24 30.08 30.09 40 FEW040 None
2018-06-25 16:00 64 36 - 34 350° 13 21 30.07 30.08 40 FEW035 None
2018-06-25 15:00 63 37 - 39 350° 15 23 30.06 30.08 40 FEW040 None
2018-06-25 14:00 59 37 - 44 330° 17 - 30.06 30.07 40 FEW040TCU FEW070 None
2018-06-25 13:00 57 37 - 47 320° 14 21 30.05 30.06 40 FEW080 None
2018-06-25 12:00 54 37 - 54 330° 12 20 30.03 30.04 40 FEW080 None
2018-06-25 11:00 52 36 - 53 320° 13 - 30.01 30.02 40 FEW080 None
2018-06-25 10:00 48 34 43 57 310° 14 - 30.00 30.01 40 FEW090 None
2018-06-25 09:00 48 34 43 57 310° 12 - 29.98 30.00 40 FEW090 None
2018-06-25 08:00 48 34 41 57 300° 14 20 29.96 29.97 40 FEW090 None
2018-06-25 07:00 50 32 45 49 310° 14 - 29.96 29.98 25 FEW090 None
2018-06-25 06:00 52 32 - 46 310° 12 - 29.97 29.98 25 SCT087 None
2018-06-25 05:00 54 34 - 46 310° 12 - 29.97 29.98 25 BKN090 None
2018-06-25 04:00 55 34 - 43 310° 10 - 29.96 29.97 25 SCT087 None
2018-06-25 03:00 57 34 - 41 310° 14 - 29.94 29.96 25 FEW088 None
2018-06-25 02:00 59 36 - 41 310° 14 - 29.93 29.95 25 FEW085 SCT230 None
2018-06-25 01:00 61 36 - 38 310° 10 - 29.90 29.92 40 FEW087 SCT230 None
2018-06-25 00:00 64 37 - 36 320° 7 - 29.88 29.89 40 FEW060 FEW230 None
2018-06-24 23:00 68 37 - 32 330° 10 - 29.87 29.88 40 FEW070 SCT230 None
2018-06-24 22:00 70 37 - 30 320° 10 - 29.86 29.88 40 FEW065 SCT230 None
2018-06-24 21:12 70 39 - 32 330° 9 - 29.86 29.87 40 FEW068 SCT230 Wind Shift: 01 min
2018-06-24 21:00 70 41 - 35 360° 6 - 29.86 29.87 40 FEW068 SCT230 None
2018-06-24 20:00 70 39 - 32 10° 3 - 29.86 29.87 40 FEW064 SCT230 None

Support USWX by starting your Amazon purchase here.